createdAt,value
2018-12-31T00:01:55.143Z,20.80
2018-12-31T00:05:00.173Z,21.50
2018-12-31T00:08:05.367Z,19.30
2018-12-31T00:11:10.437Z,20.30
2018-12-31T00:14:15.514Z,20.13
2018-12-31T00:17:20.575Z,20.73
2018-12-31T00:20:25.551Z,21.10
2018-12-31T00:23:30.579Z,20.33
2018-12-31T00:26:35.908Z,22.47
2018-12-31T00:29:41.011Z,21.40
2018-12-31T00:32:47.100Z,20.83
2018-12-31T00:35:53.201Z,19.37
2018-12-31T00:38:59.149Z,21.03
2018-12-31T00:42:05.098Z,20.53
2018-12-31T00:45:11.887Z,20.30
2018-12-31T00:48:17.731Z,20.33
2018-12-31T00:51:23.599Z,20.33
2018-12-31T00:54:29.133Z,22.53
2018-12-31T00:57:34.120Z,20.40
2018-12-31T01:00:39.171Z,20.03
2018-12-31T01:03:44.143Z,21.87
2018-12-31T01:06:49.274Z,19.23
2018-12-31T01:09:54.326Z,20.37
2018-12-31T01:12:59.307Z,19.70
2018-12-31T01:16:05.303Z,21.07
2018-12-31T01:19:10.455Z,21.77
2018-12-31T01:22:15.447Z,22.93
2018-12-31T01:25:20.427Z,21.10
2018-12-31T01:28:25.541Z,22.67
2018-12-31T01:31:30.651Z,24.20
2018-12-31T01:34:35.703Z,23.53
2018-12-31T01:37:40.681Z,22.37
2018-12-31T01:40:45.775Z,22.40
2018-12-31T01:43:50.739Z,22.90
2018-12-31T01:46:55.708Z,23.07
2018-12-31T01:50:00.736Z,21.83
2018-12-31T01:53:05.790Z,20.83
2018-12-31T01:56:10.739Z,20.97
2018-12-31T01:59:15.706Z,24.17
2018-12-31T02:02:20.670Z,23.97
2018-12-31T02:05:25.771Z,21.80
2018-12-31T02:08:30.740Z,20.83
2018-12-31T02:11:35.760Z,21.63
2018-12-31T02:14:40.791Z,23.73
2018-12-31T02:17:45.827Z,23.00
2018-12-31T02:20:50.856Z,22.93
2018-12-31T02:23:55.831Z,22.97
2018-12-31T02:27:00.855Z,23.30
2018-12-31T02:30:06.346Z,22.37
2018-12-31T02:33:11.345Z,22.90
2018-12-31T02:36:16.297Z,25.07
2018-12-31T02:39:21.414Z,22.97
2018-12-31T02:42:26.627Z,24.07
2018-12-31T02:45:31.675Z,23.63
2018-12-31T02:48:36.856Z,23.67
2018-12-31T02:51:41.880Z,23.83
2018-12-31T02:54:46.871Z,23.00
2018-12-31T02:57:51.898Z,21.30
2018-12-31T03:00:56.998Z,21.90
2018-12-31T03:04:02.043Z,21.97
2018-12-31T03:07:07.051Z,21.23
2018-12-31T03:10:12.088Z,20.67
2018-12-31T03:13:17.141Z,21.80
2018-12-31T03:16:22.107Z,20.30
2018-12-31T03:19:27.072Z,20.67
2018-12-31T03:22:32.031Z,20.80
2018-12-31T03:25:37.144Z,22.47
2018-12-31T03:28:42.097Z,18.40
2018-12-31T03:31:47.242Z,19.80
2018-12-31T03:34:52.892Z,18.83
2018-12-31T03:37:58.111Z,18.13
2018-12-31T03:41:03.432Z,19.67
2018-12-31T03:44:08.564Z,17.57
2018-12-31T03:47:13.517Z,18.63
2018-12-31T03:50:18.627Z,19.87
2018-12-31T03:53:23.667Z,20.17
2018-12-31T03:56:28.695Z,17.10
2018-12-31T03:59:33.815Z,17.60
2018-12-31T04:02:38.771Z,16.60
2018-12-31T04:05:43.819Z,17.87
2018-12-31T04:08:48.863Z,16.50
2018-12-31T04:11:53.838Z,17.27
2018-12-31T04:14:58.965Z,17.47
2018-12-31T04:18:03.987Z,17.03
2018-12-31T04:21:09.024Z,16.50
2018-12-31T04:24:14.007Z,15.10
2018-12-31T04:27:18.954Z,15.33
2018-12-31T04:30:24.072Z,15.27
2018-12-31T04:33:29.031Z,15.87
2018-12-31T04:36:34.155Z,16.00
2018-12-31T04:39:39.131Z,15.50
2018-12-31T04:42:44.154Z,14.10
2018-12-31T04:45:49.132Z,15.00
2018-12-31T04:48:54.161Z,13.63
2018-12-31T04:51:59.119Z,14.20
2018-12-31T04:55:04.160Z,15.47
2018-12-31T04:58:09.117Z,15.83
2018-12-31T05:01:14.145Z,17.17
2018-12-31T05:04:19.182Z,15.37
2018-12-31T05:07:24.327Z,16.30
2018-12-31T05:10:29.384Z,17.67
2018-12-31T05:13:34.399Z,15.33
2018-12-31T05:16:39.364Z,16.27
2018-12-31T05:19:44.345Z,17.40
2018-12-31T05:22:49.380Z,17.33
2018-12-31T05:25:54.925Z,16.27
2018-12-31T05:29:00.235Z,15.30
2018-12-31T05:32:05.607Z,16.37
2018-12-31T05:35:11.000Z,16.10
2018-12-31T05:38:16.356Z,15.07
2018-12-31T05:41:21.391Z,16.00
2018-12-31T05:44:26.605Z,16.43
2018-12-31T05:47:31.587Z,17.03
2018-12-31T05:50:36.942Z,15.27
2018-12-31T05:53:42.381Z,16.80
2018-12-31T05:56:47.583Z,14.90
2018-12-31T05:59:52.750Z,14.80
2018-12-31T06:02:57.872Z,17.50
2018-12-31T06:06:02.908Z,15.20
2018-12-31T06:09:08.544Z,16.50
2018-12-31T06:12:13.588Z,13.77
2018-12-31T06:15:18.623Z,16.60
2018-12-31T06:18:23.660Z,16.43
2018-12-31T06:21:28.630Z,16.17
2018-12-31T06:24:33.645Z,17.37
2018-12-31T06:27:38.610Z,18.07
2018-12-31T06:30:43.655Z,15.10
2018-12-31T06:33:48.619Z,14.50
2018-12-31T06:36:53.594Z,12.60
2018-12-31T06:39:58.790Z,13.47
2018-12-31T06:43:04.341Z,15.30
2018-12-31T06:46:09.480Z,13.30
2018-12-31T06:49:14.441Z,14.07
2018-12-31T06:52:19.676Z,13.37
2018-12-31T06:55:24.661Z,11.40
2018-12-31T06:58:29.775Z,10.70
2018-12-31T07:01:35.295Z,10.83
2018-12-31T07:04:40.319Z,11.50
2018-12-31T07:07:45.275Z,10.60
2018-12-31T07:10:50.241Z,12.73
2018-12-31T07:13:55.263Z,10.50
2018-12-31T07:17:00.368Z,10.83
2018-12-31T07:20:05.780Z,12.30
2018-12-31T07:23:10.737Z,10.37
2018-12-31T07:26:15.700Z,11.73
2018-12-31T07:29:20.751Z,10.83
2018-12-31T07:32:25.883Z,13.17
2018-12-31T07:35:30.931Z,13.53
2018-12-31T07:38:35.975Z,12.77
2018-12-31T07:41:40.994Z,11.70
2018-12-31T07:44:45.965Z,11.90
2018-12-31T07:47:50.912Z,14.43
2018-12-31T07:50:55.871Z,11.30
2018-12-31T07:54:00.927Z,13.97
2018-12-31T07:57:06.044Z,12.00
2018-12-31T08:00:11.158Z,10.77
2018-12-31T08:03:16.216Z,11.77
2018-12-31T08:06:21.183Z,10.80
2018-12-31T08:09:26.240Z,12.73
2018-12-31T08:12:31.185Z,11.40
2018-12-31T08:15:36.226Z,10.00
2018-12-31T08:18:41.178Z,10.20
2018-12-31T08:21:46.293Z,10.50
2018-12-31T08:24:51.280Z,11.03
2018-12-31T08:27:56.223Z,10.80
2018-12-31T08:31:01.211Z,10.00
2018-12-31T08:34:06.249Z,9.00
2018-12-31T08:37:11.209Z,9.30
2018-12-31T08:40:16.298Z,9.20
2018-12-31T08:43:22.067Z,10.47
2018-12-31T08:46:27.154Z,11.30
2018-12-31T08:49:32.266Z,10.80
2018-12-31T08:52:37.230Z,10.07
2018-12-31T08:55:42.368Z,10.90
2018-12-31T08:58:47.425Z,11.03
2018-12-31T09:01:52.640Z,10.87
2018-12-31T09:04:57.732Z,9.43
2018-12-31T09:08:02.695Z,10.73
2018-12-31T09:11:07.880Z,10.60
2018-12-31T09:14:12.855Z,9.23
2018-12-31T09:17:17.886Z,8.30
2018-12-31T09:20:23.004Z,9.27
2018-12-31T09:23:27.988Z,10.37
2018-12-31T09:26:33.183Z,9.50
2018-12-31T09:29:38.198Z,8.53
2018-12-31T09:32:43.240Z,9.00
2018-12-31T09:35:48.324Z,8.13
2018-12-31T09:38:53.350Z,9.60
2018-12-31T09:41:58.396Z,8.73
2018-12-31T09:45:03.436Z,9.80
2018-12-31T09:48:08.454Z,8.77
2018-12-31T09:51:13.499Z,10.63
2018-12-31T09:54:18.615Z,9.30
2018-12-31T09:57:23.723Z,9.93
2018-12-31T10:00:28.688Z,9.10
2018-12-31T10:03:33.652Z,10.17
2018-12-31T10:06:38.759Z,12.97
2018-12-31T10:09:43.744Z,9.83
2018-12-31T10:12:48.705Z,9.93
2018-12-31T10:15:53.744Z,11.00
2018-12-31T10:18:58.712Z,10.27
2018-12-31T10:22:03.751Z,21.60
2018-12-31T10:25:08.872Z,13.30
2018-12-31T10:28:13.849Z,11.07
2018-12-31T10:31:18.970Z,11.03
2018-12-31T10:34:23.935Z,9.73
2018-12-31T10:37:28.888Z,10.90
2018-12-31T10:40:33.990Z,10.23
2018-12-31T10:43:38.955Z,10.77
2018-12-31T10:46:44.056Z,12.47
2018-12-31T10:49:49.020Z,11.83
2018-12-31T10:52:53.958Z,12.63
2018-12-31T10:55:58.999Z,12.30
2018-12-31T10:59:04.059Z,12.03
2018-12-31T11:02:09.156Z,11.83
2018-12-31T11:05:14.291Z,11.63
2018-12-31T11:08:19.412Z,14.73
2018-12-31T11:11:24.457Z,12.87
2018-12-31T11:14:29.579Z,13.13
2018-12-31T11:17:34.616Z,12.47
2018-12-31T11:20:39.597Z,15.53
2018-12-31T11:23:46.060Z,15.27
2018-12-31T11:26:51.033Z,15.10
2018-12-31T11:29:55.991Z,12.50
2018-12-31T11:33:00.955Z,12.17
2018-12-31T11:36:06.083Z,11.37
2018-12-31T11:39:11.104Z,11.87
2018-12-31T11:42:16.195Z,9.90
2018-12-31T11:45:21.235Z,10.67
2018-12-31T11:48:26.191Z,11.03
2018-12-31T11:51:31.168Z,12.00
2018-12-31T11:54:39.276Z,10.87
2018-12-31T11:57:45.395Z,13.47
2018-12-31T12:00:51.549Z,11.27
2018-12-31T12:03:56.708Z,8.20
2018-12-31T12:07:01.764Z,9.70
2018-12-31T12:10:06.896Z,10.70
2018-12-31T12:13:11.971Z,12.30
2018-12-31T12:16:17.007Z,10.17
2018-12-31T12:19:21.960Z,7.67
2018-12-31T12:22:27.140Z,9.70
2018-12-31T12:25:32.243Z,8.80
2018-12-31T12:28:37.269Z,9.17
2018-12-31T12:31:42.308Z,7.57
2018-12-31T12:34:47.277Z,8.40
2018-12-31T12:37:52.230Z,9.10
2018-12-31T12:40:57.333Z,9.13
2018-12-31T12:44:02.421Z,9.83
2018-12-31T12:47:08.334Z,9.57
2018-12-31T12:50:13.586Z,9.80
2018-12-31T12:53:18.545Z,8.97
2018-12-31T12:56:23.580Z,9.10
2018-12-31T12:59:28.718Z,9.77
2018-12-31T13:02:34.097Z,9.20
2018-12-31T13:05:39.135Z,10.60
2018-12-31T13:08:44.185Z,11.30
2018-12-31T13:11:49.298Z,10.30
2018-12-31T13:14:54.400Z,9.57
2018-12-31T13:17:59.367Z,9.50
2018-12-31T13:21:04.484Z,10.20
2018-12-31T13:24:09.432Z,10.23
2018-12-31T13:27:14.560Z,10.40
2018-12-31T13:30:19.513Z,9.43
2018-12-31T13:33:24.645Z,10.60
2018-12-31T13:36:29.609Z,10.10
2018-12-31T13:39:34.758Z,11.40
2018-12-31T13:42:39.902Z,10.63
2018-12-31T13:45:45.168Z,10.00
2018-12-31T13:48:50.431Z,9.57
2018-12-31T13:51:56.553Z,11.63
2018-12-31T13:55:02.499Z,11.00
2018-12-31T13:58:07.638Z,11.13
2018-12-31T14:01:12.686Z,10.80
2018-12-31T14:04:17.810Z,13.20
2018-12-31T14:07:22.929Z,11.87
2018-12-31T14:10:30.075Z,11.80
2018-12-31T14:13:37.020Z,11.07
2018-12-31T14:16:43.289Z,10.43
2018-12-31T14:19:48.324Z,11.00
2018-12-31T14:22:53.282Z,10.60
2018-12-31T14:25:58.389Z,11.30
2018-12-31T14:29:03.483Z,10.70
2018-12-31T14:32:08.559Z,11.50
2018-12-31T14:35:13.631Z,10.17
2018-12-31T14:38:18.747Z,12.33
2018-12-31T14:41:24.110Z,12.17
2018-12-31T14:44:29.213Z,12.13
2018-12-31T14:47:34.175Z,11.70
2018-12-31T14:50:39.196Z,11.53
2018-12-31T14:53:44.175Z,11.83
2018-12-31T14:56:49.287Z,12.87
2018-12-31T14:59:54.596Z,12.20
2018-12-31T15:02:59.543Z,12.70
2018-12-31T15:06:04.655Z,13.80
2018-12-31T15:09:09.732Z,13.47
2018-12-31T15:12:15.075Z,15.50
2018-12-31T15:15:20.169Z,13.07
2018-12-31T15:18:25.429Z,12.13
2018-12-31T15:21:30.633Z,16.67
2018-12-31T15:24:35.655Z,14.30
2018-12-31T15:27:40.931Z,13.00
2018-12-31T15:30:46.404Z,16.17
2018-12-31T15:33:51.747Z,19.30
2018-12-31T15:36:57.191Z,17.30
2018-12-31T15:40:02.680Z,17.67
2018-12-31T15:43:07.887Z,17.57
2018-12-31T15:46:20.124Z,19.60
2018-12-31T15:49:21.184Z,20.50
2018-12-31T15:52:26.594Z,19.60
2018-12-31T15:55:31.715Z,20.02
2018-12-31T15:58:37.031Z,16.37
2018-12-31T16:01:42.008Z,16.73
2018-12-31T16:04:47.111Z,17.80
2018-12-31T16:07:52.164Z,19.37
2018-12-31T16:10:57.214Z,22.63
2018-12-31T16:14:02.187Z,20.50
2018-12-31T16:17:07.300Z,24.37
2018-12-31T16:20:12.350Z,21.40
2018-12-31T16:23:17.464Z,23.87
2018-12-31T16:26:22.508Z,24.40
2018-12-31T16:29:27.541Z,23.47
2018-12-31T16:32:32.919Z,23.27
2018-12-31T16:35:38.027Z,25.07
2018-12-31T16:38:43.069Z,23.70
2018-12-31T16:41:48.276Z,21.90
2018-12-31T16:44:53.289Z,22.10
2018-12-31T16:47:58.369Z,21.83
2018-12-31T16:51:03.566Z,22.50
2018-12-31T16:54:08.686Z,21.47
2018-12-31T16:57:13.892Z,24.10
2018-12-31T17:00:18.919Z,24.40
2018-12-31T17:03:23.983Z,23.57
2018-12-31T17:06:29.223Z,23.50
2018-12-31T17:09:34.263Z,28.30
2018-12-31T17:12:39.402Z,23.50
2018-12-31T17:15:44.423Z,22.97
2018-12-31T17:18:49.398Z,22.20
2018-12-31T17:21:54.612Z,21.13
2018-12-31T17:24:59.643Z,23.50
2018-12-31T17:28:04.843Z,23.10
2018-12-31T17:31:09.903Z,20.50
2018-12-31T17:34:14.961Z,22.27
2018-12-31T17:37:20.111Z,23.30
2018-12-31T17:40:25.445Z,25.27
2018-12-31T17:43:30.420Z,34.47
2018-12-31T17:46:35.450Z,28.23
2018-12-31T17:49:40.500Z,29.43
2018-12-31T17:52:45.560Z,27.93
2018-12-31T17:55:50.684Z,26.37
2018-12-31T17:58:55.810Z,23.87
2018-12-31T18:02:00.842Z,20.60
2018-12-31T18:05:06.049Z,22.47
2018-12-31T18:08:11.095Z,24.90
2018-12-31T18:11:16.059Z,22.30
2018-12-31T18:14:21.729Z,22.00
2018-12-31T18:17:27.059Z,21.60
2018-12-31T18:20:32.573Z,21.63
2018-12-31T18:23:38.070Z,25.43
2018-12-31T18:26:43.334Z,23.90
2018-12-31T18:29:48.564Z,24.27
2018-12-31T18:32:53.784Z,25.33
2018-12-31T18:35:58.923Z,22.00
2018-12-31T18:39:05.923Z,21.60
2018-12-31T18:42:11.342Z,23.33
2018-12-31T18:45:16.651Z,22.80
2018-12-31T18:48:22.128Z,24.70
2018-12-31T18:51:27.098Z,22.73
2018-12-31T18:54:32.083Z,21.33
2018-12-31T18:57:37.181Z,32.17
2018-12-31T19:00:42.428Z,25.67
2018-12-31T19:03:47.483Z,28.93
2018-12-31T19:06:52.515Z,24.00
2018-12-31T19:09:57.568Z,25.43
2018-12-31T19:13:02.606Z,24.33
2018-12-31T19:16:07.647Z,25.97
2018-12-31T19:19:12.771Z,26.47
2018-12-31T19:22:17.814Z,27.00
2018-12-31T19:25:22.942Z,30.43
2018-12-31T19:28:27.967Z,24.27
2018-12-31T19:31:32.990Z,24.83
2018-12-31T19:34:38.440Z,22.20
2018-12-31T19:37:43.535Z,23.77
2018-12-31T19:40:48.580Z,26.70
2018-12-31T19:43:53.616Z,21.27
2018-12-31T19:46:58.615Z,22.67
2018-12-31T19:50:03.728Z,20.93
2018-12-31T19:53:08.840Z,22.97
2018-12-31T19:56:13.972Z,22.90
2018-12-31T19:59:23.643Z,24.10
2018-12-31T20:02:28.602Z,24.80
2018-12-31T20:05:33.656Z,26.47
2018-12-31T20:08:38.787Z,24.20
2018-12-31T20:11:43.842Z,24.53
2018-12-31T20:14:48.954Z,23.40
2018-12-31T20:17:53.936Z,20.83
2018-12-31T20:20:58.972Z,23.27
2018-12-31T20:24:04.071Z,24.50
2018-12-31T20:27:09.119Z,23.97
2018-12-31T20:30:14.258Z,27.27
2018-12-31T20:33:19.379Z,26.03
2018-12-31T20:36:24.564Z,25.83
2018-12-31T20:39:29.587Z,26.10
2018-12-31T20:42:34.641Z,25.83
2018-12-31T20:45:39.688Z,26.77
2018-12-31T20:48:44.798Z,25.10
2018-12-31T20:51:50.045Z,27.50
2018-12-31T20:54:55.155Z,28.50
2018-12-31T20:58:00.259Z,29.37
2018-12-31T21:01:05.294Z,32.20
2018-12-31T21:04:10.402Z,31.40
2018-12-31T21:07:15.451Z,39.50
2018-12-31T21:10:20.490Z,27.17
2018-12-31T21:13:25.598Z,40.73
2018-12-31T21:16:30.563Z,28.43
2018-12-31T21:19:35.607Z,32.30
2018-12-31T21:22:40.581Z,31.17
2018-12-31T21:25:45.781Z,29.80
2018-12-31T21:28:50.808Z,28.90
2018-12-31T21:31:56.032Z,27.83
2018-12-31T21:35:01.066Z,26.47
2018-12-31T21:38:06.195Z,27.20
2018-12-31T21:41:11.324Z,27.70
2018-12-31T21:44:16.437Z,25.00
2018-12-31T21:47:21.936Z,27.20
2018-12-31T21:50:27.090Z,26.20
2018-12-31T21:53:32.203Z,48.50
2018-12-31T21:56:37.238Z,26.97
2018-12-31T21:59:42.293Z,29.57
2018-12-31T22:02:47.407Z,35.13
2018-12-31T22:05:52.451Z,30.27
2018-12-31T22:08:57.764Z,31.40
2018-12-31T22:12:02.924Z,36.30
2018-12-31T22:15:09.599Z,29.20
2018-12-31T22:18:14.643Z,28.93
2018-12-31T22:21:19.863Z,126.37
2018-12-31T22:24:24.847Z,30.30
2018-12-31T22:27:29.903Z,30.53
2018-12-31T22:30:35.015Z,31.23
2018-12-31T22:33:39.999Z,40.10
2018-12-31T22:36:45.052Z,38.77
2018-12-31T22:39:50.091Z,26.30
2018-12-31T22:42:55.332Z,44.47
2018-12-31T22:46:00.434Z,27.00
2018-12-31T22:49:05.492Z,32.90
2018-12-31T22:52:10.543Z,64.70
2018-12-31T22:55:15.511Z,57.07
2018-12-31T22:58:20.487Z,234.63
2018-12-31T23:01:25.645Z,265.80
2018-12-31T23:04:30.748Z,332.67
2018-12-31T23:07:35.830Z,393.10
2018-12-31T23:10:40.984Z,541.30
2018-12-31T23:13:46.110Z,441.37
2018-12-31T23:16:56.209Z,483.40
2018-12-31T23:20:01.175Z,599.60
2018-12-31T23:23:06.240Z,447.83
2018-12-31T23:26:11.361Z,293.33
2018-12-31T23:29:16.636Z,191.67
2018-12-31T23:32:21.709Z,289.13
2018-12-31T23:35:26.663Z,132.80
2018-12-31T23:38:31.764Z,211.07
2018-12-31T23:41:36.824Z,104.30
2018-12-31T23:44:41.883Z,118.50
2018-12-31T23:47:46.868Z,120.80
2018-12-31T23:50:51.933Z,112.67
2018-12-31T23:53:56.990Z,77.40
2018-12-31T23:57:02.203Z,100.27
